WMPA

Pulau Pangkor Airport

Pangkor Island, Malaysia
TAF WMPA 182300Z 1900/2000 VRB03KT 9999 FEW017CB TEMPO 1907/1911 5000 TSRA FEW010 FEW016CB
Issued Valid From Valid To
Dec-18 @ 23:00 UTC
(an hour ago)
Dec-19 @ 00:00 UTC
(14 minutes ago)
Dec-20 @ 00:00 UTC
(in 24 hours)
Dec-19 @ 00:00 to Dec-20 @ 00:00
TAF WMPA 182300Z 1900/2000 VRB03KT 9999 FEW017CB
Wind Visibility Clouds
Variable at 3 knots 10,000+ meters
  • Few at 1,700' AGL
Temporary Dec-19 @ 07:00 to Dec-19 @ 11:00
TEMPO 1907/1911 5000 TSRA FEW010 FEW016CB
Visibility Clouds Conditions
5,005 meters
  • Few at 1,000' AGL
  • Few at 1,600' AGL
  • Thunderstorm
  • Rain
TAF WMPA 182300Z 1900/2000 VRB03KT 9999 FEW017CB TEMPO 1907/1911 5000 TSRA FEW010 FEW016CB
Issued Dec-18 @ 23:00 UTC
(an hour ago)
Valid From Dec-19 @ 00:00 UTC
(14 minutes ago)
Valid To Dec-20 @ 00:00 UTC
(in 24 hours)
Dec-19 @ 00:00 - Dec-20 @ 00:00
Wind Visibility
Variable at 3 knots 10,000+ meters
Clouds
  • Few at 1,700' AGL
Temporary Dec-19 @ 07:00 - Dec-19 @ 11:00
Clouds
  • Few at 1,000' AGL
  • Few at 1,600' AGL
Conditions
  • Thunderstorm
  • Rain